sensor_id;sensor_type;location;lat;lon;timestamp;pressure;altitude;pressure_sealevel;temperature;humidity
49000;BME280;34808;48.144;17.158;2022-11-15T00:00:06;100294.00;;;5.25;100.00
49000;BME280;34808;48.144;17.158;2022-11-15T00:02:32;100326.19;;;5.55;100.00
49000;BME280;34808;48.144;17.158;2022-11-15T00:04:57;100362.28;;;5.82;100.00
49000;BME280;34808;48.144;17.158;2022-11-15T00:07:23;100363.44;;;5.79;100.00
49000;BME280;34808;48.144;17.158;2022-11-15T00:09:48;100313.19;;;5.27;100.00
49000;BME280;34808;48.144;17.158;2022-11-15T00:12:13;100352.56;;;5.47;100.00
49000;BME280;34808;48.144;17.158;2022-11-15T00:14:38;100368.09;;;5.50;100.00
49000;BME280;34808;48.144;17.158;2022-11-15T00:17:04;100356.25;;;5.54;100.00
49000;BME280;34808;48.144;17.158;2022-11-15T00:19:29;100207.22;;;4.60;100.00
49000;BME280;34808;48.144;17.158;2022-11-15T00:21:54;100382.72;;;5.71;100.00
49000;BME280;34808;48.144;17.158;2022-11-15T00:24:20;100341.78;;;5.40;100.00
49000;BME280;34808;48.144;17.158;2022-11-15T00:26:45;100280.22;;;5.05;100.00
49000;BME280;34808;48.144;17.158;2022-11-15T00:29:10;100339.00;;;5.42;100.00
49000;BME280;34808;48.144;17.158;2022-11-15T00:31:36;100328.44;;;5.42;100.00
49000;BME280;34808;48.144;17.158;2022-11-15T00:34:01;100368.44;;;5.55;100.00
49000;BME280;34808;48.144;17.158;2022-11-15T00:36:27;100381.09;;;5.70;100.00
49000;BME280;34808;48.144;17.158;2022-11-15T00:38:52;100376.63;;;5.71;100.00
49000;BME280;34808;48.144;17.158;2022-11-15T00:41:17;100286.56;;;5.20;100.00
49000;BME280;34808;48.144;17.158;2022-11-15T00:43:42;100325.16;;;5.48;100.00
49000;BME280;34808;48.144;17.158;2022-11-15T00:46:09;100350.78;;;5.56;100.00
49000;BME280;34808;48.144;17.158;2022-11-15T00:48:35;100367.66;;;5.55;100.00
49000;BME280;34808;48.144;17.158;2022-11-15T00:51:00;100345.25;;;5.41;100.00
49000;BME280;34808;48.144;17.158;2022-11-15T00:53:26;100331.41;;;5.39;100.00
49000;BME280;34808;48.144;17.158;2022-11-15T00:55:51;100324.13;;;5.41;100.00
49000;BME280;34808;48.144;17.158;2022-11-15T00:58:17;100292.69;;;5.21;100.00
49000;BME280;34808;48.144;17.158;2022-11-15T01:00:42;100360.91;;;5.61;100.00
49000;BME280;34808;48.144;17.158;2022-11-15T01:03:07;100326.13;;;5.39;100.00
49000;BME280;34808;48.144;17.158;2022-11-15T01:05:33;100346.00;;;5.51;100.00
49000;BME280;34808;48.144;17.158;2022-11-15T01:07:58;100363.22;;;5.64;100.00
49000;BME280;34808;48.144;17.158;2022-11-15T01:10:23;100361.56;;;5.63;100.00
49000;BME280;34808;48.144;17.158;2022-11-15T01:12:50;100324.13;;;5.41;100.00
49000;BME280;34808;48.144;17.158;2022-11-15T01:15:16;100327.59;;;5.41;100.00
49000;BME280;34808;48.144;17.158;2022-11-15T01:17:44;100253.97;;;5.03;100.00
49000;BME280;34808;48.144;17.158;2022-11-15T01:20:10;100355.31;;;5.72;100.00
49000;BME280;34808;48.144;17.158;2022-11-15T01:22:35;100308.59;;;5.38;100.00
49000;BME280;34808;48.144;17.158;2022-11-15T01:25:01;100213.44;;;4.77;100.00
49000;BME280;34808;48.144;17.158;2022-11-15T01:27:26;100326.50;;;5.52;100.00
49000;BME280;34808;48.144;17.158;2022-11-15T01:29:51;100336.91;;;5.54;100.00
49000;BME280;34808;48.144;17.158;2022-11-15T01:32:17;100316.38;;;5.39;100.00
49000;BME280;34808;48.144;17.158;2022-11-15T01:34:43;100266.50;;;5.01;100.00
49000;BME280;34808;48.144;17.158;2022-11-15T01:37:08;100349.31;;;5.62;100.00
49000;BME280;34808;48.144;17.158;2022-11-15T01:39:51;100174.72;;;4.60;100.00
49000;BME280;34808;48.144;17.158;2022-11-15T01:42:17;100355.81;;;5.68;100.00
49000;BME280;34808;48.144;17.158;2022-11-15T01:44:47;100193.56;;;4.65;100.00
49000;BME280;34808;48.144;17.158;2022-11-15T01:49:59;100343.56;;;5.66;100.00
49000;BME280;34808;48.144;17.158;2022-11-15T01:52:28;100309.00;;;5.51;100.00
49000;BME280;34808;48.144;17.158;2022-11-15T01:55:06;100288.13;;;5.40;100.00
49000;BME280;34808;48.144;17.158;2022-11-15T01:57:33;100330.19;;;5.68;100.00
49000;BME280;34808;48.144;17.158;2022-11-15T02:00:00;100303.00;;;5.41;100.00
49000;BME280;34808;48.144;17.158;2022-11-15T02:02:26;100317.59;;;5.53;100.00
49000;BME280;34808;48.144;17.158;2022-11-15T02:04:52;100328.88;;;5.64;100.00
49000;BME280;34808;48.144;17.158;2022-11-15T02:07:18;100279.19;;;5.32;100.00
49000;BME280;34808;48.144;17.158;2022-11-15T02:09:45;100221.44;;;4.94;100.00
49000;BME280;34808;48.144;17.158;2022-11-15T02:12:15;100251.75;;;5.25;100.00
49000;BME280;34808;48.144;17.158;2022-11-15T02:14:46;100265.97;;;5.24;100.00
49000;BME280;34808;48.144;17.158;2022-11-15T02:22:38;100319.63;;;5.68;100.00
49000;BME280;34808;48.144;17.158;2022-11-15T02:27:57;100310.72;;;5.69;100.00
49000;BME280;34808;48.144;17.158;2022-11-15T02:35:59;100192.41;;;4.94;100.00
49000;BME280;34808;48.144;17.158;2022-11-15T02:38:30;100333.19;;;5.73;100.00
49000;BME280;34808;48.144;17.158;2022-11-15T02:41:05;100318.31;;;5.72;100.00
49000;BME280;34808;48.144;17.158;2022-11-15T02:43:40;100240.53;;;5.23;100.00
49000;BME280;34808;48.144;17.158;2022-11-15T02:46:29;100320.66;;;5.75;100.00
49000;BME280;34808;48.144;17.158;2022-11-15T02:49:25;100324.97;;;5.76;100.00
49000;BME280;34808;48.144;17.158;2022-11-15T02:51:54;100259.06;;;5.31;100.00
49000;BME280;34808;48.144;17.158;2022-11-15T02:54:23;100268.97;;;5.38;100.00
49000;BME280;34808;48.144;17.158;2022-11-15T02:56:49;100274.53;;;5.61;100.00
49000;BME280;34808;48.144;17.158;2022-11-15T02:59:33;100323.31;;;5.84;100.00
49000;BME280;34808;48.144;17.158;2022-11-15T03:08:21;100135.44;;;4.83;100.00
49000;BME280;34808;48.144;17.158;2022-11-15T03:11:03;100302.16;;;5.84;100.00
49000;BME280;34808;48.144;17.158;2022-11-15T03:13:58;100303.16;;;5.83;100.00
49000;BME280;34808;48.144;17.158;2022-11-15T03:19:37;100272.06;;;5.68;100.00
49000;BME280;34808;48.144;17.158;2022-11-15T03:22:09;100289.44;;;5.71;100.00
49000;BME280;34808;48.144;17.158;2022-11-15T03:24:37;100267.78;;;5.67;100.00
49000;BME280;34808;48.144;17.158;2022-11-15T03:27:06;100119.22;;;4.70;100.00
49000;BME280;34808;48.144;17.158;2022-11-15T03:29:37;100274.38;;;5.71;100.00
49000;BME280;34808;48.144;17.158;2022-11-15T03:32:09;100276.03;;;5.72;100.00
49000;BME280;34808;48.144;17.158;2022-11-15T03:34:42;100296.69;;;5.77;100.00
49000;BME280;34808;48.144;17.158;2022-11-15T03:37:11;100230.72;;;5.42;100.00
49000;BME280;34808;48.144;17.158;2022-11-15T03:39:42;100231.69;;;5.49;100.00
49000;BME280;34808;48.144;17.158;2022-11-15T03:42:48;100280.69;;;5.87;100.00
49000;BME280;34808;48.144;17.158;2022-11-15T03:45:23;100211.53;;;5.40;100.00
49000;BME280;34808;48.144;17.158;2022-11-15T03:48:14;100032.31;;;4.24;100.00
49000;BME280;34808;48.144;17.158;2022-11-15T03:50:41;100251.59;;;5.70;100.00
49000;BME280;34808;48.144;17.158;2022-11-15T03:53:08;100113.66;;;4.81;100.00
49000;BME280;34808;48.144;17.158;2022-11-15T03:55:33;100125.56;;;4.94;100.00
49000;BME280;34808;48.144;17.158;2022-11-15T03:58:00;100247.78;;;5.64;100.00
49000;BME280;34808;48.144;17.158;2022-11-15T04:00:26;100266.50;;;5.88;100.00
49000;BME280;34808;48.144;17.158;2022-11-15T04:02:52;100132.22;;;5.06;100.00
49000;BME280;34808;48.144;17.158;2022-11-15T04:05:17;100259.72;;;5.94;100.00
49000;BME280;34808;48.144;17.158;2022-11-15T04:07:43;100152.88;;;5.19;100.00
49000;BME280;34808;48.144;17.158;2022-11-15T04:10:11;100246.00;;;5.90;100.00
49000;BME280;34808;48.144;17.158;2022-11-15T04:12:39;100135.75;;;5.24;100.00
49000;BME280;34808;48.144;17.158;2022-11-15T04:15:10;100167.97;;;5.44;100.00
49000;BME280;34808;48.144;17.158;2022-11-15T04:20:08;100045.72;;;4.83;100.00
49000;BME280;34808;48.144;17.158;2022-11-15T04:22:54;100133.44;;;5.37;100.00
49000;BME280;34808;48.144;17.158;2022-11-15T04:25:38;100224.88;;;5.98;100.00
49000;BME280;34808;48.144;17.158;2022-11-15T04:28:03;100234.19;;;6.11;100.00
49000;BME280;34808;48.144;17.158;2022-11-15T04:30:29;100197.94;;;5.86;100.00
49000;BME280;34808;48.144;17.158;2022-11-15T04:32:54;100095.00;;;5.26;100.00
49000;BME280;34808;48.144;17.158;2022-11-15T04:35:20;100228.72;;;6.13;100.00
49000;BME280;34808;48.144;17.158;2022-11-15T04:37:45;100232.00;;;6.15;100.00
49000;BME280;34808;48.144;17.158;2022-11-15T04:40:11;100210.16;;;5.96;100.00
49000;BME280;34808;48.144;17.158;2022-11-15T04:42:36;100218.16;;;6.13;100.00
49000;BME280;34808;48.144;17.158;2022-11-15T04:45:01;100031.91;;;4.89;100.00
49000;BME280;34808;48.144;17.158;2022-11-15T04:47:27;100174.63;;;5.82;100.00
49000;BME280;34808;48.144;17.158;2022-11-15T04:49:53;100078.31;;;5.26;100.00
49000;BME280;34808;48.144;17.158;2022-11-15T04:52:18;100216.00;;;6.16;100.00
49000;BME280;34808;48.144;17.158;2022-11-15T04:54:43;100172.31;;;5.79;100.00
49000;BME280;34808;48.144;17.158;2022-11-15T04:57:09;100158.47;;;5.76;100.00
49000;BME280;34808;48.144;17.158;2022-11-15T04:59:35;100197.78;;;5.88;100.00
49000;BME280;34808;48.144;17.158;2022-11-15T05:02:00;100128.53;;;5.51;100.00
49000;BME280;34808;48.144;17.158;2022-11-15T05:04:26;100222.78;;;6.19;100.00
49000;BME280;34808;48.144;17.158;2022-11-15T05:06:51;100154.66;;;5.79;100.00
49000;BME280;34808;48.144;17.158;2022-11-15T05:09:18;100211.53;;;6.17;100.00
49000;BME280;34808;48.144;17.158;2022-11-15T05:11:43;100198.16;;;6.10;100.00
49000;BME280;34808;48.144;17.158;2022-11-15T05:14:09;100209.03;;;6.24;100.00
49000;BME280;34808;48.144;17.158;2022-11-15T05:16:35;100180.13;;;6.14;100.00
49000;BME280;34808;48.144;17.158;2022-11-15T05:19:00;100104.28;;;5.64;100.00
49000;BME280;34808;48.144;17.158;2022-11-15T05:21:26;100182.72;;;6.05;100.00
49000;BME280;34808;48.144;17.158;2022-11-15T05:23:51;100156.31;;;5.88;100.00
49000;BME280;34808;48.144;17.158;2022-11-15T05:26:18;100207.41;;;6.23;100.00
49000;BME280;34808;48.144;17.158;2022-11-15T05:28:44;99941.94;;;4.49;100.00
49000;BME280;34808;48.144;17.158;2022-11-15T05:31:11;100067.94;;;5.49;100.00
49000;BME280;34808;48.144;17.158;2022-11-15T05:33:41;100184.25;;;6.25;100.00
49000;BME280;34808;48.144;17.158;2022-11-15T05:38:54;100159.78;;;6.14;100.00
49000;BME280;34808;48.144;17.158;2022-11-15T05:41:22;100124.25;;;5.92;100.00
49000;BME280;34808;48.144;17.158;2022-11-15T05:43:51;100180.28;;;6.29;100.00
49000;BME280;34808;48.144;17.158;2022-11-15T05:46:17;100122.91;;;5.96;100.00
49000;BME280;34808;48.144;17.158;2022-11-15T05:48:45;100163.44;;;6.13;100.00
49000;BME280;34808;48.144;17.158;2022-11-15T05:51:13;100177.81;;;6.19;100.00
49000;BME280;34808;48.144;17.158;2022-11-15T05:53:39;100098.47;;;5.69;100.00
49000;BME280;34808;48.144;17.158;2022-11-15T05:56:05;100187.91;;;6.32;100.00
49000;BME280;34808;48.144;17.158;2022-11-15T05:58:34;100179.78;;;6.34;100.00
49000;BME280;34808;48.144;17.158;2022-11-15T06:01:01;100152.53;;;6.16;100.00
49000;BME280;34808;48.144;17.158;2022-11-15T06:03:26;100042.16;;;5.43;100.00
49000;BME280;34808;48.144;17.158;2022-11-15T06:05:52;100130.38;;;5.92;100.00
49000;BME280;34808;48.144;17.158;2022-11-15T06:08:17;100026.34;;;5.26;100.00
49000;BME280;34808;48.144;17.158;2022-11-15T06:10:42;100089.41;;;5.63;100.00
49000;BME280;34808;48.144;17.158;2022-11-15T06:13:07;100200.44;;;6.38;100.00
49000;BME280;34808;48.144;17.158;2022-11-15T06:15:33;100056.72;;;5.47;100.00
49000;BME280;34808;48.144;17.158;2022-11-15T06:17:59;100156.16;;;6.15;100.00
49000;BME280;34808;48.144;17.158;2022-11-15T06:20:26;100122.09;;;6.04;100.00
49000;BME280;34808;48.144;17.158;2022-11-15T06:22:59;100017.75;;;5.24;100.00
49000;BME280;34808;48.144;17.158;2022-11-15T06:25:26;100194.50;;;6.45;100.00
49000;BME280;34808;48.144;17.158;2022-11-15T06:27:52;100135.34;;;6.12;100.00
49000;BME280;34808;48.144;17.158;2022-11-15T06:30:18;100122.75;;;6.06;100.00
49000;BME280;34808;48.144;17.158;2022-11-15T06:32:44;100173.47;;;6.43;100.00
49000;BME280;34808;48.144;17.158;2022-11-15T06:35:09;100193.31;;;6.56;100.00
49000;BME280;34808;48.144;17.158;2022-11-15T06:37:35;100145.91;;;6.20;100.00
49000;BME280;34808;48.144;17.158;2022-11-15T06:40:00;100178.94;;;6.50;100.00
49000;BME280;34808;48.144;17.158;2022-11-15T06:42:25;100187.34;;;6.62;100.00
49000;BME280;34808;48.144;17.158;2022-11-15T06:44:51;99947.28;;;5.16;100.00
49000;BME280;34808;48.144;17.158;2022-11-15T06:47:16;100095.66;;;6.04;100.00
49000;BME280;34808;48.144;17.158;2022-11-15T06:49:41;100169.00;;;6.60;100.00
49000;BME280;34808;48.144;17.158;2022-11-15T06:52:06;100081.81;;;5.85;100.00
49000;BME280;34808;48.144;17.158;2022-11-15T06:54:32;100181.88;;;6.72;100.00
49000;BME280;34808;48.144;17.158;2022-11-15T06:56:57;100089.72;;;6.18;100.00
49000;BME280;34808;48.144;17.158;2022-11-15T06:59:22;100145.72;;;6.47;100.00
49000;BME280;34808;48.144;17.158;2022-11-15T07:01:49;100162.34;;;6.64;100.00
49000;BME280;34808;48.144;17.158;2022-11-15T07:04:14;100015.75;;;5.76;100.00
49000;BME280;34808;48.144;17.158;2022-11-15T07:06:39;100169.47;;;6.64;100.00
49000;BME280;34808;48.144;17.158;2022-11-15T07:09:05;100122.06;;;6.46;100.00
49000;BME280;34808;48.144;17.158;2022-11-15T07:11:30;100106.56;;;6.26;100.00
49000;BME280;34808;48.144;17.158;2022-11-15T07:13:55;100133.91;;;6.58;100.00
49000;BME280;34808;48.144;17.158;2022-11-15T07:16:21;100154.22;;;6.74;100.00
49000;BME280;34808;48.144;17.158;2022-11-15T07:18:46;100113.91;;;6.56;100.00
49000;BME280;34808;48.144;17.158;2022-11-15T07:21:11;100146.13;;;6.76;100.00
49000;BME280;34808;48.144;17.158;2022-11-15T07:23:38;100127.44;;;6.69;100.00
49000;BME280;34808;48.144;17.158;2022-11-15T07:26:04;100097.56;;;6.52;100.00
49000;BME280;34808;48.144;17.158;2022-11-15T07:28:29;100149.06;;;6.81;100.00
49000;BME280;34808;48.144;17.158;2022-11-15T07:30:54;99905.22;;;5.23;100.00
49000;BME280;34808;48.144;17.158;2022-11-15T07:33:20;100091.50;;;6.35;100.00
49000;BME280;34808;48.144;17.158;2022-11-15T07:35:46;100173.69;;;6.90;100.00
49000;BME280;34808;48.144;17.158;2022-11-15T07:38:14;100153.53;;;6.81;100.00
49000;BME280;34808;48.144;17.158;2022-11-15T07:40:44;100149.41;;;6.78;100.00
49000;BME280;34808;48.144;17.158;2022-11-15T07:43:10;99951.22;;;5.54;100.00
49000;BME280;34808;48.144;17.158;2022-11-15T07:45:42;99945.41;;;5.59;100.00
49000;BME280;34808;48.144;17.158;2022-11-15T07:48:07;99989.31;;;5.85;100.00
49000;BME280;34808;48.144;17.158;2022-11-15T07:50:33;100048.88;;;6.29;100.00
49000;BME280;34808;48.144;17.158;2022-11-15T07:52:59;100101.03;;;6.52;100.00
49000;BME280;34808;48.144;17.158;2022-11-15T07:55:26;100124.28;;;6.82;100.00
49000;BME280;34808;48.144;17.158;2022-11-15T07:58:14;100160.69;;;7.12;100.00
49000;BME280;34808;48.144;17.158;2022-11-15T08:00:40;100132.66;;;6.94;100.00
49000;BME280;34808;48.144;17.158;2022-11-15T08:03:13;100159.09;;;7.03;100.00
49000;BME280;34808;48.144;17.158;2022-11-15T08:05:43;100083.16;;;6.55;100.00
49000;BME280;34808;48.144;17.158;2022-11-15T08:08:11;100156.44;;;7.03;100.00
49000;BME280;34808;48.144;17.158;2022-11-15T08:10:39;100168.00;;;7.10;100.00
49000;BME280;34808;48.144;17.158;2022-11-15T08:13:08;100161.88;;;7.01;100.00
49000;BME280;34808;48.144;17.158;2022-11-15T08:15:35;100147.19;;;6.99;100.00
49000;BME280;34808;48.144;17.158;2022-11-15T08:18:04;100133.16;;;6.90;100.00
49000;BME280;34808;48.144;17.158;2022-11-15T08:20:33;100169.00;;;7.09;100.00
49000;BME280;34808;48.144;17.158;2022-11-15T08:23:02;100096.97;;;6.73;100.00
49000;BME280;34808;48.144;17.158;2022-11-15T08:25:29;100097.16;;;6.72;100.00
49000;BME280;34808;48.144;17.158;2022-11-15T08:27:56;100155.56;;;7.11;100.00
49000;BME280;34808;48.144;17.158;2022-11-15T08:30:23;100105.91;;;6.81;100.00
49000;BME280;34808;48.144;17.158;2022-11-15T08:32:49;100151.44;;;7.08;100.00
49000;BME280;34808;48.144;17.158;2022-11-15T08:35:15;100116.69;;;6.71;100.00
49000;BME280;34808;48.144;17.158;2022-11-15T08:37:43;100148.84;;;7.00;100.00
49000;BME280;34808;48.144;17.158;2022-11-15T08:40:12;100143.16;;;7.11;100.00
49000;BME280;34808;48.144;17.158;2022-11-15T08:42:39;100003.78;;;6.23;100.00
49000;BME280;34808;48.144;17.158;2022-11-15T08:45:05;100141.31;;;7.12;100.00
49000;BME280;34808;48.144;17.158;2022-11-15T08:47:31;100085.88;;;6.78;100.00
49000;BME280;34808;48.144;17.158;2022-11-15T08:49:59;100136.50;;;7.15;100.00
49000;BME280;34808;48.144;17.158;2022-11-15T08:52:26;100118.53;;;7.02;100.00
49000;BME280;34808;48.144;17.158;2022-11-15T08:54:52;100109.28;;;6.98;100.00
49000;BME280;34808;48.144;17.158;2022-11-15T08:57:17;100021.84;;;6.42;100.00
49000;BME280;34808;48.144;17.158;2022-11-15T08:59:43;99998.97;;;6.26;100.00
49000;BME280;34808;48.144;17.158;2022-11-15T09:02:15;100092.25;;;7.01;100.00
49000;BME280;34808;48.144;17.158;2022-11-15T09:04:41;100087.66;;;6.86;100.00
49000;BME280;34808;48.144;17.158;2022-11-15T09:07:07;100042.13;;;6.59;100.00
49000;BME280;34808;48.144;17.158;2022-11-15T09:09:33;100013.84;;;6.59;100.00
49000;BME280;34808;48.144;17.158;2022-11-15T09:11:58;100084.09;;;7.02;100.00
49000;BME280;34808;48.144;17.158;2022-11-15T09:14:26;99718.53;;;4.75;100.00
49000;BME280;34808;48.144;17.158;2022-11-15T09:16:51;100021.06;;;6.74;100.00
49000;BME280;34808;48.144;17.158;2022-11-15T09:19:16;100073.72;;;7.01;100.00
49000;BME280;34808;48.144;17.158;2022-11-15T09:21:42;100083.06;;;7.12;100.00
49000;BME280;34808;48.144;17.158;2022-11-15T09:24:07;100072.31;;;7.13;100.00
49000;BME280;34808;48.144;17.158;2022-11-15T09:26:33;100131.91;;;7.41;100.00
49000;BME280;34808;48.144;17.158;2022-11-15T09:28:59;100058.59;;;7.10;100.00
49000;BME280;34808;48.144;17.158;2022-11-15T09:31:26;100085.78;;;7.27;100.00
49000;BME280;34808;48.144;17.158;2022-11-15T09:33:52;100106.34;;;7.48;100.00
49000;BME280;34808;48.144;17.158;2022-11-15T09:36:17;100110.34;;;7.44;100.00
49000;BME280;34808;48.144;17.158;2022-11-15T09:38:42;100060.81;;;7.21;100.00
49000;BME280;34808;48.144;17.158;2022-11-15T09:47:10;100101.28;;;7.62;100.00
49000;BME280;34808;48.144;17.158;2022-11-15T09:49:39;100082.13;;;7.51;100.00
49000;BME280;34808;48.144;17.158;2022-11-15T09:52:06;100020.75;;;7.24;100.00
49000;BME280;34808;48.144;17.158;2022-11-15T09:54:37;100093.69;;;7.59;100.00
49000;BME280;34808;48.144;17.158;2022-11-15T09:57:10;99928.47;;;6.66;100.00
49000;BME280;34808;48.144;17.158;2022-11-15T10:05:20;100073.47;;;7.81;100.00
49000;BME280;34808;48.144;17.158;2022-11-15T10:08:28;100003.69;;;7.66;100.00
49000;BME280;34808;48.144;17.158;2022-11-15T10:11:05;100019.88;;;7.86;100.00
49000;BME280;34808;48.144;17.158;2022-11-15T10:13:34;100023.47;;;8.09;100.00
49000;BME280;34808;48.144;17.158;2022-11-15T10:19:10;100008.53;;;8.08;100.00
49000;BME280;34808;48.144;17.158;2022-11-15T10:24:40;99926.81;;;7.96;100.00
49000;BME280;34808;48.144;17.158;2022-11-15T10:27:13;99895.88;;;7.88;100.00
49000;BME280;34808;48.144;17.158;2022-11-15T10:29:49;99965.19;;;8.31;100.00
49000;BME280;34808;48.144;17.158;2022-11-15T10:32:18;99974.09;;;8.60;100.00
49000;BME280;34808;48.144;17.158;2022-11-15T10:34:44;99956.53;;;8.59;100.00
49000;BME280;34808;48.144;17.158;2022-11-15T10:37:11;99932.84;;;8.42;100.00
49000;BME280;34808;48.144;17.158;2022-11-15T10:39:40;99931.72;;;8.52;100.00
49000;BME280;34808;48.144;17.158;2022-11-15T10:42:28;99987.09;;;8.92;100.00
49000;BME280;34808;48.144;17.158;2022-11-15T10:44:54;99975.41;;;8.86;100.00
49000;BME280;34808;48.144;17.158;2022-11-15T10:47:25;99730.47;;;7.30;100.00
49000;BME280;34808;48.144;17.158;2022-11-15T10:50:56;99988.38;;;8.96;100.00
49000;BME280;34808;48.144;17.158;2022-11-15T10:52:53;99975.78;;;8.83;100.00
49000;BME280;34808;48.144;17.158;2022-11-15T10:55:30;99983.22;;;8.95;100.00
49000;BME280;34808;48.144;17.158;2022-11-15T10:58:05;99972.66;;;8.79;100.00
49000;BME280;34808;48.144;17.158;2022-11-15T11:00:37;99913.31;;;8.50;100.00
49000;BME280;34808;48.144;17.158;2022-11-15T11:03:30;99950.28;;;8.67;100.00
49000;BME280;34808;48.144;17.158;2022-11-15T11:06:16;99898.09;;;8.37;100.00
49000;BME280;34808;48.144;17.158;2022-11-15T11:08:55;99926.22;;;8.53;100.00
49000;BME280;34808;48.144;17.158;2022-11-15T11:11:21;99952.31;;;8.65;100.00
49000;BME280;34808;48.144;17.158;2022-11-15T11:13:48;99880.69;;;8.12;100.00
49000;BME280;34808;48.144;17.158;2022-11-15T11:18:54;99954.22;;;8.71;100.00
49000;BME280;34808;48.144;17.158;2022-11-15T11:24:23;99939.13;;;8.72;100.00
49000;BME280;34808;48.144;17.158;2022-11-15T11:27:02;99941.13;;;8.69;100.00
49000;BME280;34808;48.144;17.158;2022-11-15T11:35:38;99934.81;;;8.70;100.00
49000;BME280;34808;48.144;17.158;2022-11-15T11:51:28;99898.50;;;8.56;100.00
49000;BME280;34808;48.144;17.158;2022-11-15T11:56:59;99886.69;;;8.58;100.00
49000;BME280;34808;48.144;17.158;2022-11-15T12:02:16;99869.31;;;8.56;100.00
49000;BME280;34808;48.144;17.158;2022-11-15T12:04:50;99885.56;;;8.68;100.00
49000;BME280;34808;48.144;17.158;2022-11-15T12:07:27;99894.59;;;8.74;100.00
49000;BME280;34808;48.144;17.158;2022-11-15T12:10:23;99891.75;;;8.75;100.00
49000;BME280;34808;48.144;17.158;2022-11-15T12:15:33;99867.16;;;8.66;100.00
49000;BME280;34808;48.144;17.158;2022-11-15T12:18:02;99864.63;;;8.58;100.00
49000;BME280;34808;48.144;17.158;2022-11-15T12:20:35;99850.72;;;8.56;100.00
49000;BME280;34808;48.144;17.158;2022-11-15T12:23:11;99603.13;;;7.10;100.00
49000;BME280;34808;48.144;17.158;2022-11-15T12:26:28;99857.50;;;8.80;100.00
49000;BME280;34808;48.144;17.158;2022-11-15T12:28:45;99872.22;;;8.83;100.00
49000;BME280;34808;48.144;17.158;2022-11-15T12:31:26;99837.50;;;8.63;100.00
49000;BME280;34808;48.144;17.158;2022-11-15T12:33:56;99835.97;;;8.68;100.00
49000;BME280;34808;48.144;17.158;2022-11-15T12:39:04;99374.53;;;5.69;100.00
49000;BME280;34808;48.144;17.158;2022-11-15T12:43:56;99856.59;;;8.73;100.00
49000;BME280;34808;48.144;17.158;2022-11-15T12:59:55;99824.13;;;8.71;100.00
49000;BME280;34808;48.144;17.158;2022-11-15T13:02:31;99797.13;;;8.45;100.00
49000;BME280;34808;48.144;17.158;2022-11-15T13:17:51;99637.34;;;7.70;100.00
49000;BME280;34808;48.144;17.158;2022-11-15T13:20:18;99812.09;;;8.75;100.00
49000;BME280;34808;48.144;17.158;2022-11-15T13:31:27;99792.13;;;8.79;100.00
49000;BME280;34808;48.144;17.158;2022-11-15T13:33:56;99771.97;;;8.63;100.00
49000;BME280;34808;48.144;17.158;2022-11-15T13:36:24;99705.34;;;8.29;100.00
49000;BME280;34808;48.144;17.158;2022-11-15T13:38:56;99630.91;;;7.80;100.00
49000;BME280;34808;48.144;17.158;2022-11-15T13:41:25;99772.25;;;8.68;100.00
49000;BME280;34808;48.144;17.158;2022-11-15T13:43:53;99665.66;;;7.70;100.00
49000;BME280;34808;48.144;17.158;2022-11-15T13:46:22;99772.28;;;8.75;100.00
49000;BME280;34808;48.144;17.158;2022-11-15T13:48:55;99639.53;;;7.89;100.00
49000;BME280;34808;48.144;17.158;2022-11-15T13:54:19;99757.75;;;8.71;100.00
49000;BME280;34808;48.144;17.158;2022-11-15T13:56:49;99771.25;;;8.76;100.00
49000;BME280;34808;48.144;17.158;2022-11-15T13:59:33;99623.91;;;8.01;100.00
49000;BME280;34808;48.144;17.158;2022-11-15T14:02:11;99718.88;;;8.63;100.00
49000;BME280;34808;48.144;17.158;2022-11-15T14:04:45;99760.47;;;8.85;100.00
49000;BME280;34808;48.144;17.158;2022-11-15T14:07:21;99730.72;;;8.61;100.00
49000;BME280;34808;48.144;17.158;2022-11-15T14:09:47;99724.59;;;8.60;100.00
49000;BME280;34808;48.144;17.158;2022-11-15T14:12:39;99727.72;;;8.70;100.00
49000;BME280;34808;48.144;17.158;2022-11-15T14:15:38;99543.44;;;7.58;100.00
49000;BME280;34808;48.144;17.158;2022-11-15T14:18:05;99692.09;;;8.58;100.00
49000;BME280;34808;48.144;17.158;2022-11-15T14:20:37;99745.16;;;8.80;100.00
49000;BME280;34808;48.144;17.158;2022-11-15T14:23:18;99652.72;;;8.33;100.00
49000;BME280;34808;48.144;17.158;2022-11-15T14:25:55;99725.97;;;8.85;100.00
49000;BME280;34808;48.144;17.158;2022-11-15T14:30:52;99696.50;;;8.73;100.00
49000;BME280;34808;48.144;17.158;2022-11-15T14:33:28;99717.44;;;8.89;100.00
49000;BME280;34808;48.144;17.158;2022-11-15T14:35:56;99731.53;;;8.90;100.00
49000;BME280;34808;48.144;17.158;2022-11-15T14:38:26;99653.44;;;8.48;100.00
49000;BME280;34808;48.144;17.158;2022-11-15T14:40:51;99674.59;;;8.64;100.00
49000;BME280;34808;48.144;17.158;2022-11-15T14:43:16;99598.56;;;8.20;100.00
49000;BME280;34808;48.144;17.158;2022-11-15T14:45:42;99644.69;;;8.55;100.00
49000;BME280;34808;48.144;17.158;2022-11-15T14:48:09;99684.63;;;8.68;100.00
49000;BME280;34808;48.144;17.158;2022-11-15T14:50:35;99658.41;;;8.58;100.00
49000;BME280;34808;48.144;17.158;2022-11-15T14:53:00;99678.16;;;8.78;100.00
49000;BME280;34808;48.144;17.158;2022-11-15T14:55:34;99706.41;;;8.92;100.00
49000;BME280;34808;48.144;17.158;2022-11-15T14:58:05;99674.84;;;8.76;100.00
49000;BME280;34808;48.144;17.158;2022-11-15T15:00:34;99679.59;;;8.80;100.00